ADDS METAR Data INFO
IDs: Format: Raw Decoded Include TAF

Data at: 2332 UTC 19 Oct 2017

KMRF 192256Z AUTO 13007G15KT 10SM FEW085 BKN110 26/04 A3006 RMK AO2 RAB13E24 SLP128 P0000 T02560044
KMRF 192156Z AUTO 17006KT 10SM BKN095 26/04 A3007 RMK AO2 SLP133 T02610044
KMRF 192056Z AUTO 17010G15KT 10SM BKN120 27/05 A3008 RMK AO2 SLP135 T02720050 56027
KMRF 191956Z AUTO 18013KT 10SM FEW095 SCT120 28/06 A3010 RMK AO2 SLP138 T02780056
KMRF 191856Z AUTO 17005KT 10SM BKN100 26/05 A3014 RMK AO2 SLP154 T02610050
KMRF 191756Z AUTO 16009KT 10SM CLR 25/05 A3017 RMK AO2 SLP165 T02500050 10261 20122 58005
KMRF 191656Z AUTO 19006KT 10SM SCT100 24/04 A3019 RMK AO2 SLP171 T02390039
KMRF 191556Z AUTO 16006KT 10SM CLR 22/04 A3020 RMK AO2 SLP181 T02170044
KMRF 191456Z AUTO 09004KT 10SM OVC095 19/07 A3019 RMK AO2 SLP175 T01940067 53013
KMRF 191356Z AUTO 00000KT 10SM OVC100 14/09 A3017 RMK AO2 SLP174 T01390089
KMRF 191256Z AUTO 04003KT 10SM SCT110 13/08 A3016 RMK AO2 SLP167 T01330083
KMRF 191156Z AUTO 02005KT 10SM FEW110 13/09 A3015 RMK AO2 SLP160 7//// T01330089 10167 20106 53002
KMRF 191056Z AUTO 04003KT 10SM CLR 13/08 A3014 RMK AO2 SLP153 T01280083
KMRF 190956Z AUTO 00000KT 10SM BKN110 11/08 A3014 RMK AO2 SLP154 T01110078 TSNO
KMRF 190856Z AUTO 27004KT 10SM CLR 11/08 A3014 RMK AO2 SLP156 T01110078 55012
KMRF 190756Z AUTO 02004KT 10SM CLR 13/08 A3014 RMK AO2 SLP154 T01280083
KMRF 190656Z AUTO 08006KT 10SM CLR 13/08 A3016 RMK AO2 SLP161 T01330083 402830067
KMRF 190556Z AUTO 00000KT 10SM CLR 14/09 A3018 RMK AO2 SLP169 6//// T01440089 10244 20122 50001
KMRF 190456Z AUTO 26003KT 10SM CLR 17/03 A3020 RMK AO2 SLP175 T01720033
KMRF 190356Z AUTO 33004KT 10SM CLR 12/04 A3018 RMK AO2 SLP177 T01220039
KMRF 190256Z AUTO 10SM CLR 18/03 A3018 RMK AO2 SLP174 6//// T01780033 51014
KMRF 190156Z AUTO 17003KT 10SM CLR 19/04 A3017 RMK AO2 SLP175 T01890039
KMRF 190056Z AUTO 14005KT 10SM FEW100 21/05 A3015 RMK AO2 SLP173 T02060050
KMRF 182356Z AUTO 16006KT 10SM CLR 24/05 A3013 RMK AO2 SLP162 T02440050 10283 20244 56005
KMRF 182256Z AUTO 19009KT 10SM BKN100 27/05 A3013 RMK AO2 SLP158 T02720050
KMRF 182156Z AUTO 14010KT 10SM CLR 28/06 A3015 RMK AO2 SLP160 T02780056
KMRF 182056Z AUTO 15008KT 10SM CLR 28/05 A3015 RMK AO2 SLP164 T02780050 56026
KMRF 181956Z AUTO 15007KT 10SM CLR 27/05 A3018 RMK AO2 SLP172 T02720050
KMRF 181856Z AUTO 18010KT 10SM CLR 26/04 A3021 RMK AO2 SLP186 T02610044
KMRF 181756Z AUTO VRB06KT 10SM CLR 26/04 A3024 RMK AO2 SLP196 T02560039 10256 20072 58005
KMRF 181656Z AUTO 19007KT 10SM CLR 23/01 A3026 RMK AO2 SLP205 T02280006
KMRF 181556Z AUTO VRB03KT 10SM CLR 21/01 A3026 RMK AO2 SLP204 T02060011
KMRF 181456Z AUTO 00000KT 10SM CLR 17/01 A3026 RMK AO2 SLP202 T01720006 53010
KMRF 181356Z AUTO 10SM CLR 13/04 A3023 RMK AO2 SLP199 T01330039 $
KMRF 181256Z AUTO 01007KT 10SM CLR 07/02 A3023 RMK AO2 SLP201 T00720022
KMRF 181156Z AUTO 01007KT 10SM CLR 07/03 A3022 RMK AO2 SLP194 7//// T00720028 10089 20067 55001